Portada
METAR-TAF:

METAR-TAF

Aeroports :

Mahiliou, Bielorússia

latitud: 53-57-18N, longitud: 030-05-42E, altitud: 194 m

Observació

L'informe es va fer fa 9 hores i 16 minuts, a les 13:00 UTC
Vent 10 kt del Oest/Sud-Oest
Temperatura 8°C
Humitat 66%
Pressió 1010 hPa
Visibilitat 10 km o més
Cel ennuvolat a una alçada de 1400 ft
Cel ennuvolat

METAR: UMOO 181300Z 25005MPS 9999 BKN014 BKN/// 08/02 Q1010 R31/CLRD// NOSIG

Hora: 01:16 (22:16 UTC)

Pronòstic

L'informe es va fer fa 11 hores i 13 minuts, a les 11:03 UTC
Pronòstic vàlid del 18 a les 12 UTC al 18 a les 21 UTC
Vent 14 kt del Oest/Sud-Oest
Visibilitat: 8000 m
Cel ennuvolat a una alçada de 1000 ft
Temporalment
l' 18 a les 12 UTC al 18 a les 21 UTC
Vent 10 kt del Sud-Oest amb ràfegues de 19 kt
Visibilitat: 3000 m
Cel ennuvolat a una alçada de 700 ft
Cel ennuvolat a una alçada de 1500 ft, Cumulonimbus.
xàfecs de pluja, boirina

TAF: UMOO 181103Z 1812/1821 25007MPS 8000 BKN010 TEMPO 1812/1821 23005G10MPS 3000 -SHRA BR BKN007 BKN015CB

Observacions i pronòstics meteorològics de més de 4000 aeroports (METAR i TAF).

Les estacions disponibles són els punts grocs i vermells al mapa.

Posi el ratolí al punt desitjat per veure el nom de l'estació.

Feu clic per veure les observacions i els pronòstics meteorològics.

Per canviar el mapa: feu clic els botons verds amb una creu de color negre per apropar; al botó verd amb un guió per allunyar la imatge; o en les fletxes verdes per a mapes adjacents.


METAR-TAF: